sensor_id;sensor_type;location;lat;lon;timestamp;temperature;humidity
45765;DHT22;31474;45.332;10.230;2024-02-23T00:00:27;19.70;99.90
45765;DHT22;31474;45.332;10.230;2024-02-23T00:02:53;19.70;99.90
45765;DHT22;31474;45.332;10.230;2024-02-23T00:05:23;19.70;99.90
45765;DHT22;31474;45.332;10.230;2024-02-23T00:07:49;19.80;99.90
45765;DHT22;31474;45.332;10.230;2024-02-23T00:10:15;19.70;99.90
45765;DHT22;31474;45.332;10.230;2024-02-23T00:12:41;19.70;99.90
45765;DHT22;31474;45.332;10.230;2024-02-23T00:15:07;19.70;99.90
45765;DHT22;31474;45.332;10.230;2024-02-23T00:17:33;19.70;99.90
45765;DHT22;31474;45.332;10.230;2024-02-23T00:19:58;19.70;99.90
45765;DHT22;31474;45.332;10.230;2024-02-23T00:22:24;19.70;99.90
45765;DHT22;31474;45.332;10.230;2024-02-23T00:24:51;19.70;99.90
45765;DHT22;31474;45.332;10.230;2024-02-23T00:27:17;19.70;99.90
45765;DHT22;31474;45.332;10.230;2024-02-23T00:29:42;19.70;99.90
45765;DHT22;31474;45.332;10.230;2024-02-23T00:32:09;19.70;99.90
45765;DHT22;31474;45.332;10.230;2024-02-23T00:34:35;19.70;99.90
45765;DHT22;31474;45.332;10.230;2024-02-23T00:37:01;19.70;99.90
45765;DHT22;31474;45.332;10.230;2024-02-23T00:39:27;19.70;99.90
45765;DHT22;31474;45.332;10.230;2024-02-23T00:41:53;19.70;99.90
45765;DHT22;31474;45.332;10.230;2024-02-23T00:44:18;19.60;99.90
45765;DHT22;31474;45.332;10.230;2024-02-23T00:46:44;19.70;99.90
45765;DHT22;31474;45.332;10.230;2024-02-23T00:49:10;19.60;99.90
45765;DHT22;31474;45.332;10.230;2024-02-23T00:51:35;19.60;99.90
45765;DHT22;31474;45.332;10.230;2024-02-23T00:54:01;19.60;99.90
45765;DHT22;31474;45.332;10.230;2024-02-23T00:56:27;19.60;99.90
45765;DHT22;31474;45.332;10.230;2024-02-23T00:58:53;19.60;99.90
45765;DHT22;31474;45.332;10.230;2024-02-23T01:01:18;19.60;99.90
45765;DHT22;31474;45.332;10.230;2024-02-23T01:03:44;19.60;99.90
45765;DHT22;31474;45.332;10.230;2024-02-23T01:06:10;19.60;99.90
45765;DHT22;31474;45.332;10.230;2024-02-23T01:08:35;19.60;99.90
45765;DHT22;31474;45.332;10.230;2024-02-23T01:11:01;19.60;99.90
45765;DHT22;31474;45.332;10.230;2024-02-23T01:13:27;19.60;99.90
45765;DHT22;31474;45.332;10.230;2024-02-23T01:15:52;19.60;99.90
45765;DHT22;31474;45.332;10.230;2024-02-23T01:18:19;19.60;99.90
45765;DHT22;31474;45.332;10.230;2024-02-23T01:20:45;19.60;99.90
45765;DHT22;31474;45.332;10.230;2024-02-23T01:23:11;19.60;99.90
45765;DHT22;31474;45.332;10.230;2024-02-23T01:25:36;19.60;99.90
45765;DHT22;31474;45.332;10.230;2024-02-23T01:28:03;19.60;99.90
45765;DHT22;31474;45.332;10.230;2024-02-23T01:30:28;19.60;99.90
45765;DHT22;31474;45.332;10.230;2024-02-23T01:32:54;19.60;99.90
45765;DHT22;31474;45.332;10.230;2024-02-23T01:35:20;19.50;99.90
45765;DHT22;31474;45.332;10.230;2024-02-23T01:37:45;19.60;99.90
45765;DHT22;31474;45.332;10.230;2024-02-23T01:40:11;19.60;99.90
45765;DHT22;31474;45.332;10.230;2024-02-23T01:42:38;19.50;99.90
45765;DHT22;31474;45.332;10.230;2024-02-23T01:45:04;19.60;99.90
45765;DHT22;31474;45.332;10.230;2024-02-23T01:47:30;19.50;99.90
45765;DHT22;31474;45.332;10.230;2024-02-23T01:49:57;19.60;99.90
45765;DHT22;31474;45.332;10.230;2024-02-23T01:52:24;19.50;99.90
45765;DHT22;31474;45.332;10.230;2024-02-23T01:54:50;19.50;99.90
45765;DHT22;31474;45.332;10.230;2024-02-23T01:57:17;19.50;99.90
45765;DHT22;31474;45.332;10.230;2024-02-23T01:59:43;19.50;99.90
45765;DHT22;31474;45.332;10.230;2024-02-23T02:02:09;19.50;99.90
45765;DHT22;31474;45.332;10.230;2024-02-23T02:04:34;19.50;99.90
45765;DHT22;31474;45.332;10.230;2024-02-23T02:07:01;19.50;99.90
45765;DHT22;31474;45.332;10.230;2024-02-23T02:09:26;19.50;99.90
45765;DHT22;31474;45.332;10.230;2024-02-23T02:11:52;19.50;99.90
45765;DHT22;31474;45.332;10.230;2024-02-23T02:14:18;19.50;99.90
45765;DHT22;31474;45.332;10.230;2024-02-23T02:16:44;19.50;99.90
45765;DHT22;31474;45.332;10.230;2024-02-23T02:19:11;19.50;99.90
45765;DHT22;31474;45.332;10.230;2024-02-23T02:21:37;19.50;99.90
45765;DHT22;31474;45.332;10.230;2024-02-23T02:24:03;19.50;99.90
45765;DHT22;31474;45.332;10.230;2024-02-23T02:26:29;19.50;99.90
45765;DHT22;31474;45.332;10.230;2024-02-23T02:28:55;19.50;99.90
45765;DHT22;31474;45.332;10.230;2024-02-23T02:31:21;19.50;99.90
45765;DHT22;31474;45.332;10.230;2024-02-23T02:33:46;19.50;99.90
45765;DHT22;31474;45.332;10.230;2024-02-23T02:36:12;19.50;99.90
45765;DHT22;31474;45.332;10.230;2024-02-23T02:38:38;19.50;99.90
45765;DHT22;31474;45.332;10.230;2024-02-23T02:41:04;19.50;99.90
45765;DHT22;31474;45.332;10.230;2024-02-23T02:43:30;19.50;99.90
45765;DHT22;31474;45.332;10.230;2024-02-23T02:45:56;19.50;99.90
45765;DHT22;31474;45.332;10.230;2024-02-23T02:48:23;19.50;99.90
45765;DHT22;31474;45.332;10.230;2024-02-23T02:50:48;19.50;99.90
45765;DHT22;31474;45.332;10.230;2024-02-23T02:53:15;19.50;99.90
45765;DHT22;31474;45.332;10.230;2024-02-23T02:55:44;19.50;99.90
45765;DHT22;31474;45.332;10.230;2024-02-23T02:58:13;19.50;99.90
45765;DHT22;31474;45.332;10.230;2024-02-23T03:00:39;19.40;99.90
45765;DHT22;31474;45.332;10.230;2024-02-23T03:03:06;19.50;99.90
45765;DHT22;31474;45.332;10.230;2024-02-23T03:05:31;19.40;99.90
45765;DHT22;31474;45.332;10.230;2024-02-23T03:07:57;19.40;99.90
45765;DHT22;31474;45.332;10.230;2024-02-23T03:10:23;19.40;99.90
45765;DHT22;31474;45.332;10.230;2024-02-23T03:12:48;19.40;99.90
45765;DHT22;31474;45.332;10.230;2024-02-23T03:15:14;19.50;99.90
45765;DHT22;31474;45.332;10.230;2024-02-23T03:17:40;19.40;99.90
45765;DHT22;31474;45.332;10.230;2024-02-23T03:20:06;19.40;99.90
45765;DHT22;31474;45.332;10.230;2024-02-23T03:22:35;19.40;99.90
45765;DHT22;31474;45.332;10.230;2024-02-23T03:25:02;19.40;99.90
45765;DHT22;31474;45.332;10.230;2024-02-23T03:27:34;19.40;99.90
45765;DHT22;31474;45.332;10.230;2024-02-23T03:29:59;19.40;99.90
45765;DHT22;31474;45.332;10.230;2024-02-23T03:32:25;19.40;99.90
45765;DHT22;31474;45.332;10.230;2024-02-23T03:34:51;19.40;99.90
45765;DHT22;31474;45.332;10.230;2024-02-23T03:37:17;19.40;99.90
45765;DHT22;31474;45.332;10.230;2024-02-23T03:39:42;19.40;99.90
45765;DHT22;31474;45.332;10.230;2024-02-23T03:42:08;19.40;99.90
45765;DHT22;31474;45.332;10.230;2024-02-23T03:44:34;19.40;99.90
45765;DHT22;31474;45.332;10.230;2024-02-23T03:46:59;19.40;99.90
45765;DHT22;31474;45.332;10.230;2024-02-23T03:49:25;19.40;99.90
45765;DHT22;31474;45.332;10.230;2024-02-23T03:51:51;19.40;99.90
45765;DHT22;31474;45.332;10.230;2024-02-23T03:54:16;19.40;99.90
45765;DHT22;31474;45.332;10.230;2024-02-23T03:56:42;19.40;99.90
45765;DHT22;31474;45.332;10.230;2024-02-23T03:59:08;19.30;99.90
45765;DHT22;31474;45.332;10.230;2024-02-23T04:01:38;19.40;99.90
45765;DHT22;31474;45.332;10.230;2024-02-23T04:04:04;19.40;99.90
45765;DHT22;31474;45.332;10.230;2024-02-23T04:06:30;19.30;99.90
45765;DHT22;31474;45.332;10.230;2024-02-23T04:08:56;19.30;99.90
45765;DHT22;31474;45.332;10.230;2024-02-23T04:11:22;19.30;99.90
45765;DHT22;31474;45.332;10.230;2024-02-23T04:13:47;19.30;99.90
45765;DHT22;31474;45.332;10.230;2024-02-23T04:16:13;19.40;99.90
45765;DHT22;31474;45.332;10.230;2024-02-23T04:18:39;19.30;99.90
45765;DHT22;31474;45.332;10.230;2024-02-23T04:21:04;19.30;99.90
45765;DHT22;31474;45.332;10.230;2024-02-23T04:23:30;19.30;99.90
45765;DHT22;31474;45.332;10.230;2024-02-23T04:25:56;19.30;99.90
45765;DHT22;31474;45.332;10.230;2024-02-23T04:28:21;19.30;99.90
45765;DHT22;31474;45.332;10.230;2024-02-23T04:30:47;19.30;99.90
45765;DHT22;31474;45.332;10.230;2024-02-23T04:33:13;19.30;99.90
45765;DHT22;31474;45.332;10.230;2024-02-23T04:35:39;19.30;99.90
45765;DHT22;31474;45.332;10.230;2024-02-23T04:38:04;19.30;99.90
45765;DHT22;31474;45.332;10.230;2024-02-23T04:40:30;19.30;99.90
45765;DHT22;31474;45.332;10.230;2024-02-23T04:42:55;19.30;99.90
45765;DHT22;31474;45.332;10.230;2024-02-23T04:45:21;19.30;99.90
45765;DHT22;31474;45.332;10.230;2024-02-23T04:47:47;19.30;99.90
45765;DHT22;31474;45.332;10.230;2024-02-23T04:50:14;19.30;99.90
45765;DHT22;31474;45.332;10.230;2024-02-23T04:52:39;19.30;99.90
45765;DHT22;31474;45.332;10.230;2024-02-23T04:55:05;19.30;99.90
45765;DHT22;31474;45.332;10.230;2024-02-23T04:57:31;19.30;99.90
45765;DHT22;31474;45.332;10.230;2024-02-23T04:59:57;19.30;99.90
45765;DHT22;31474;45.332;10.230;2024-02-23T05:02:23;19.30;99.90
45765;DHT22;31474;45.332;10.230;2024-02-23T05:04:49;19.30;99.90
45765;DHT22;31474;45.332;10.230;2024-02-23T05:07:15;19.30;99.90
45765;DHT22;31474;45.332;10.230;2024-02-23T05:09:40;19.30;99.90
45765;DHT22;31474;45.332;10.230;2024-02-23T05:12:07;19.30;99.90
45765;DHT22;31474;45.332;10.230;2024-02-23T05:14:33;19.30;99.90
45765;DHT22;31474;45.332;10.230;2024-02-23T05:16:59;19.30;99.90
45765;DHT22;31474;45.332;10.230;2024-02-23T05:19:25;19.30;99.90
45765;DHT22;31474;45.332;10.230;2024-02-23T05:21:51;19.30;99.90
45765;DHT22;31474;45.332;10.230;2024-02-23T05:24:16;19.30;99.90
45765;DHT22;31474;45.332;10.230;2024-02-23T05:26:42;19.30;99.90
45765;DHT22;31474;45.332;10.230;2024-02-23T05:29:09;19.30;99.90
45765;DHT22;31474;45.332;10.230;2024-02-23T05:31:47;19.30;99.90
45765;DHT22;31474;45.332;10.230;2024-02-23T05:34:14;19.30;99.90
45765;DHT22;31474;45.332;10.230;2024-02-23T05:36:39;19.30;99.90
45765;DHT22;31474;45.332;10.230;2024-02-23T05:39:05;19.30;99.90
45765;DHT22;31474;45.332;10.230;2024-02-23T05:41:33;19.30;99.90
45765;DHT22;31474;45.332;10.230;2024-02-23T05:43:58;19.30;99.90
45765;DHT22;31474;45.332;10.230;2024-02-23T05:46:24;19.30;99.90
45765;DHT22;31474;45.332;10.230;2024-02-23T05:48:50;19.30;99.90
45765;DHT22;31474;45.332;10.230;2024-02-23T05:51:15;19.30;99.90
45765;DHT22;31474;45.332;10.230;2024-02-23T05:53:41;19.30;99.90
45765;DHT22;31474;45.332;10.230;2024-02-23T05:56:07;19.30;99.90
45765;DHT22;31474;45.332;10.230;2024-02-23T05:58:33;19.30;99.90
45765;DHT22;31474;45.332;10.230;2024-02-23T06:00:58;19.30;99.90
45765;DHT22;31474;45.332;10.230;2024-02-23T06:03:24;19.30;99.90
45765;DHT22;31474;45.332;10.230;2024-02-23T06:05:50;19.30;99.90
45765;DHT22;31474;45.332;10.230;2024-02-23T06:08:15;19.30;99.90
45765;DHT22;31474;45.332;10.230;2024-02-23T06:10:41;19.30;99.90
45765;DHT22;31474;45.332;10.230;2024-02-23T06:13:08;19.30;99.90
45765;DHT22;31474;45.332;10.230;2024-02-23T06:15:34;19.30;99.90
45765;DHT22;31474;45.332;10.230;2024-02-23T06:17:59;19.30;99.90
45765;DHT22;31474;45.332;10.230;2024-02-23T06:20:25;19.30;99.90
45765;DHT22;31474;45.332;10.230;2024-02-23T06:22:51;19.30;99.90
45765;DHT22;31474;45.332;10.230;2024-02-23T06:25:17;19.30;99.90
45765;DHT22;31474;45.332;10.230;2024-02-23T06:27:42;19.20;99.90
45765;DHT22;31474;45.332;10.230;2024-02-23T06:30:08;19.30;99.90
45765;DHT22;31474;45.332;10.230;2024-02-23T06:32:34;19.30;99.90
45765;DHT22;31474;45.332;10.230;2024-02-23T06:34:59;19.30;99.90
45765;DHT22;31474;45.332;10.230;2024-02-23T06:37:25;19.20;99.90
45765;DHT22;31474;45.332;10.230;2024-02-23T06:39:51;19.30;99.90
45765;DHT22;31474;45.332;10.230;2024-02-23T06:42:20;19.30;99.90
45765;DHT22;31474;45.332;10.230;2024-02-23T06:44:46;19.30;99.90
45765;DHT22;31474;45.332;10.230;2024-02-23T06:47:12;19.30;99.90
45765;DHT22;31474;45.332;10.230;2024-02-23T06:49:41;19.20;99.90
45765;DHT22;31474;45.332;10.230;2024-02-23T06:52:08;19.20;99.90
45765;DHT22;31474;45.332;10.230;2024-02-23T06:54:33;19.30;99.90
45765;DHT22;31474;45.332;10.230;2024-02-23T06:57:00;19.30;99.90
45765;DHT22;31474;45.332;10.230;2024-02-23T06:59:25;19.20;99.90
45765;DHT22;31474;45.332;10.230;2024-02-23T07:01:51;19.20;99.90
45765;DHT22;31474;45.332;10.230;2024-02-23T07:04:17;19.20;99.90
45765;DHT22;31474;45.332;10.230;2024-02-23T07:06:44;19.20;99.90
45765;DHT22;31474;45.332;10.230;2024-02-23T07:09:10;19.20;99.90
45765;DHT22;31474;45.332;10.230;2024-02-23T07:11:37;19.30;99.90
45765;DHT22;31474;45.332;10.230;2024-02-23T07:14:03;19.20;99.90
45765;DHT22;31474;45.332;10.230;2024-02-23T07:16:29;19.20;99.90
45765;DHT22;31474;45.332;10.230;2024-02-23T07:18:54;19.20;99.90
45765;DHT22;31474;45.332;10.230;2024-02-23T07:21:20;19.20;99.90
45765;DHT22;31474;45.332;10.230;2024-02-23T07:23:46;19.20;99.90
45765;DHT22;31474;45.332;10.230;2024-02-23T07:26:12;19.30;99.90
45765;DHT22;31474;45.332;10.230;2024-02-23T07:28:37;19.20;99.90
45765;DHT22;31474;45.332;10.230;2024-02-23T07:31:03;19.20;99.90
45765;DHT22;31474;45.332;10.230;2024-02-23T07:33:29;19.20;99.90
45765;DHT22;31474;45.332;10.230;2024-02-23T07:35:54;19.20;99.90
45765;DHT22;31474;45.332;10.230;2024-02-23T07:38:20;19.20;99.90
45765;DHT22;31474;45.332;10.230;2024-02-23T07:40:46;19.20;99.90
45765;DHT22;31474;45.332;10.230;2024-02-23T07:43:11;19.30;99.90
45765;DHT22;31474;45.332;10.230;2024-02-23T07:45:37;19.30;99.90
45765;DHT22;31474;45.332;10.230;2024-02-23T07:48:04;19.20;99.90
45765;DHT22;31474;45.332;10.230;2024-02-23T07:50:29;19.20;99.90
45765;DHT22;31474;45.332;10.230;2024-02-23T07:52:55;19.20;99.90
45765;DHT22;31474;45.332;10.230;2024-02-23T07:55:21;19.20;99.90
45765;DHT22;31474;45.332;10.230;2024-02-23T07:57:47;19.20;99.90
45765;DHT22;31474;45.332;10.230;2024-02-23T08:00:13;19.20;99.90
45765;DHT22;31474;45.332;10.230;2024-02-23T08:02:39;19.20;99.90
45765;DHT22;31474;45.332;10.230;2024-02-23T08:05:06;19.20;99.90
45765;DHT22;31474;45.332;10.230;2024-02-23T08:07:32;19.20;99.90
45765;DHT22;31474;45.332;10.230;2024-02-23T08:09:57;19.20;99.90
45765;DHT22;31474;45.332;10.230;2024-02-23T08:12:23;19.20;99.90
45765;DHT22;31474;45.332;10.230;2024-02-23T08:14:49;19.20;99.90
45765;DHT22;31474;45.332;10.230;2024-02-23T08:17:18;19.20;99.90
45765;DHT22;31474;45.332;10.230;2024-02-23T08:19:44;19.20;99.90
45765;DHT22;31474;45.332;10.230;2024-02-23T08:22:10;19.20;99.90
45765;DHT22;31474;45.332;10.230;2024-02-23T08:24:36;19.20;99.90
45765;DHT22;31474;45.332;10.230;2024-02-23T08:27:01;19.20;99.90
45765;DHT22;31474;45.332;10.230;2024-02-23T08:29:28;19.20;99.90
45765;DHT22;31474;45.332;10.230;2024-02-23T08:31:53;19.20;99.90
45765;DHT22;31474;45.332;10.230;2024-02-23T08:34:19;19.20;99.90
45765;DHT22;31474;45.332;10.230;2024-02-23T08:36:45;19.20;99.90
45765;DHT22;31474;45.332;10.230;2024-02-23T08:39:10;19.20;99.90
45765;DHT22;31474;45.332;10.230;2024-02-23T08:41:36;19.20;99.90
45765;DHT22;31474;45.332;10.230;2024-02-23T08:44:02;19.20;99.90
45765;DHT22;31474;45.332;10.230;2024-02-23T08:46:28;19.20;99.90
45765;DHT22;31474;45.332;10.230;2024-02-23T08:48:53;19.20;99.90
45765;DHT22;31474;45.332;10.230;2024-02-23T08:51:19;19.20;99.90
45765;DHT22;31474;45.332;10.230;2024-02-23T08:53:45;19.20;99.90
45765;DHT22;31474;45.332;10.230;2024-02-23T08:56:11;19.20;99.90
45765;DHT22;31474;45.332;10.230;2024-02-23T08:58:37;19.20;99.90
45765;DHT22;31474;45.332;10.230;2024-02-23T09:01:04;19.20;99.90
45765;DHT22;31474;45.332;10.230;2024-02-23T09:03:30;19.20;99.90
45765;DHT22;31474;45.332;10.230;2024-02-23T09:05:57;19.20;99.90
45765;DHT22;31474;45.332;10.230;2024-02-23T09:08:23;19.20;99.90
45765;DHT22;31474;45.332;10.230;2024-02-23T09:10:48;19.20;99.90
45765;DHT22;31474;45.332;10.230;2024-02-23T09:13:14;19.20;99.90
45765;DHT22;31474;45.332;10.230;2024-02-23T09:15:40;19.10;99.90
45765;DHT22;31474;45.332;10.230;2024-02-23T09:18:07;19.10;99.90
45765;DHT22;31474;45.332;10.230;2024-02-23T09:20:33;19.20;99.90
45765;DHT22;31474;45.332;10.230;2024-02-23T09:22:59;19.10;99.90
45765;DHT22;31474;45.332;10.230;2024-02-23T09:25:24;19.10;99.90
45765;DHT22;31474;45.332;10.230;2024-02-23T09:27:50;19.20;99.90
45765;DHT22;31474;45.332;10.230;2024-02-23T09:30:16;19.10;99.90
45765;DHT22;31474;45.332;10.230;2024-02-23T09:32:41;19.10;99.90
45765;DHT22;31474;45.332;10.230;2024-02-23T09:35:08;19.20;99.90
45765;DHT22;31474;45.332;10.230;2024-02-23T09:37:34;19.10;99.90
45765;DHT22;31474;45.332;10.230;2024-02-23T09:39:59;19.20;99.90
45765;DHT22;31474;45.332;10.230;2024-02-23T09:42:28;19.10;99.90
45765;DHT22;31474;45.332;10.230;2024-02-23T09:44:59;19.10;99.90
45765;DHT22;31474;45.332;10.230;2024-02-23T09:47:28;19.20;99.90
45765;DHT22;31474;45.332;10.230;2024-02-23T09:49:55;19.10;99.90
45765;DHT22;31474;45.332;10.230;2024-02-23T09:52:21;19.10;99.90
45765;DHT22;31474;45.332;10.230;2024-02-23T09:54:47;19.10;99.90
45765;DHT22;31474;45.332;10.230;2024-02-23T09:57:14;19.10;99.90
45765;DHT22;31474;45.332;10.230;2024-02-23T09:59:40;19.10;99.90
45765;DHT22;31474;45.332;10.230;2024-02-23T10:02:08;19.20;99.90
45765;DHT22;31474;45.332;10.230;2024-02-23T10:04:38;19.10;99.90
45765;DHT22;31474;45.332;10.230;2024-02-23T10:07:05;19.10;99.90
45765;DHT22;31474;45.332;10.230;2024-02-23T10:09:31;19.10;99.90
45765;DHT22;31474;45.332;10.230;2024-02-23T10:11:57;19.10;99.90
45765;DHT22;31474;45.332;10.230;2024-02-23T10:14:23;19.10;99.90
45765;DHT22;31474;45.332;10.230;2024-02-23T10:16:48;19.10;99.90
45765;DHT22;31474;45.332;10.230;2024-02-23T10:19:19;19.20;99.90
45765;DHT22;31474;45.332;10.230;2024-02-23T10:21:46;19.10;99.90
45765;DHT22;31474;45.332;10.230;2024-02-23T10:24:12;19.10;99.90
45765;DHT22;31474;45.332;10.230;2024-02-23T10:26:38;19.10;99.90
45765;DHT22;31474;45.332;10.230;2024-02-23T10:29:04;19.10;99.90
45765;DHT22;31474;45.332;10.230;2024-02-23T10:31:35;19.10;99.90
45765;DHT22;31474;45.332;10.230;2024-02-23T10:34:09;19.10;99.90
45765;DHT22;31474;45.332;10.230;2024-02-23T10:36:40;19.10;99.90
45765;DHT22;31474;45.332;10.230;2024-02-23T10:39:06;19.10;99.90
45765;DHT22;31474;45.332;10.230;2024-02-23T10:41:35;19.10;99.90
45765;DHT22;31474;45.332;10.230;2024-02-23T10:44:03;19.10;99.90
45765;DHT22;31474;45.332;10.230;2024-02-23T10:46:31;19.10;99.90
45765;DHT22;31474;45.332;10.230;2024-02-23T10:48:58;19.10;99.90
45765;DHT22;31474;45.332;10.230;2024-02-23T10:51:27;19.10;99.90
45765;DHT22;31474;45.332;10.230;2024-02-23T10:53:53;19.10;99.90
45765;DHT22;31474;45.332;10.230;2024-02-23T10:56:19;19.10;99.90
45765;DHT22;31474;45.332;10.230;2024-02-23T10:58:48;19.10;99.90
45765;DHT22;31474;45.332;10.230;2024-02-23T11:01:14;19.10;99.90
45765;DHT22;31474;45.332;10.230;2024-02-23T11:03:43;19.10;99.90
45765;DHT22;31474;45.332;10.230;2024-02-23T11:06:11;19.10;99.90
45765;DHT22;31474;45.332;10.230;2024-02-23T11:08:37;19.10;99.90
45765;DHT22;31474;45.332;10.230;2024-02-23T11:11:10;19.10;99.90
45765;DHT22;31474;45.332;10.230;2024-02-23T11:13:40;19.10;99.90
45765;DHT22;31474;45.332;10.230;2024-02-23T11:16:06;19.10;99.90
45765;DHT22;31474;45.332;10.230;2024-02-23T11:18:34;19.10;99.90
45765;DHT22;31474;45.332;10.230;2024-02-23T11:21:04;19.10;99.90
45765;DHT22;31474;45.332;10.230;2024-02-23T11:26:12;19.10;99.90
45765;DHT22;31474;45.332;10.230;2024-02-23T11:28:51;19.10;99.90
45765;DHT22;31474;45.332;10.230;2024-02-23T11:31:23;19.00;99.90
45765;DHT22;31474;45.332;10.230;2024-02-23T11:33:50;19.00;99.90
45765;DHT22;31474;45.332;10.230;2024-02-23T11:36:35;19.10;99.90
45765;DHT22;31474;45.332;10.230;2024-02-23T11:39:02;19.10;99.90
45765;DHT22;31474;45.332;10.230;2024-02-23T11:41:28;19.10;99.90
45765;DHT22;31474;45.332;10.230;2024-02-23T11:43:55;19.00;99.90
45765;DHT22;31474;45.332;10.230;2024-02-23T11:46:21;19.10;99.90
45765;DHT22;31474;45.332;10.230;2024-02-23T11:48:48;19.10;99.90
45765;DHT22;31474;45.332;10.230;2024-02-23T11:51:19;19.10;99.90
45765;DHT22;31474;45.332;10.230;2024-02-23T11:53:46;19.10;99.90
45765;DHT22;31474;45.332;10.230;2024-02-23T11:56:13;19.00;99.90
45765;DHT22;31474;45.332;10.230;2024-02-23T11:58:39;19.10;99.90
45765;DHT22;31474;45.332;10.230;2024-02-23T12:01:05;19.10;99.90
45765;DHT22;31474;45.332;10.230;2024-02-23T12:03:33;19.00;99.90
45765;DHT22;31474;45.332;10.230;2024-02-23T12:05:59;19.10;99.90
45765;DHT22;31474;45.332;10.230;2024-02-23T12:08:26;19.10;99.90
45765;DHT22;31474;45.332;10.230;2024-02-23T12:10:54;19.00;99.90
45765;DHT22;31474;45.332;10.230;2024-02-23T12:13:20;19.00;99.90
45765;DHT22;31474;45.332;10.230;2024-02-23T12:15:47;19.10;99.90
45765;DHT22;31474;45.332;10.230;2024-02-23T12:18:13;19.00;99.90
45765;DHT22;31474;45.332;10.230;2024-02-23T12:20:40;19.00;99.90
45765;DHT22;31474;45.332;10.230;2024-02-23T12:23:05;19.00;99.90
45765;DHT22;31474;45.332;10.230;2024-02-23T12:25:33;19.00;99.90
45765;DHT22;31474;45.332;10.230;2024-02-23T12:27:59;19.10;99.90
45765;DHT22;31474;45.332;10.230;2024-02-23T12:30:27;19.10;99.90
45765;DHT22;31474;45.332;10.230;2024-02-23T12:33:06;19.00;99.90
45765;DHT22;31474;45.332;10.230;2024-02-23T12:35:33;19.10;99.90
45765;DHT22;31474;45.332;10.230;2024-02-23T12:37:59;19.10;99.90
45765;DHT22;31474;45.332;10.230;2024-02-23T12:40:25;19.10;99.90
45765;DHT22;31474;45.332;10.230;2024-02-23T12:42:51;19.00;99.90
45765;DHT22;31474;45.332;10.230;2024-02-23T12:45:16;19.00;99.90
45765;DHT22;31474;45.332;10.230;2024-02-23T12:47:42;19.00;99.90
45765;DHT22;31474;45.332;10.230;2024-02-23T12:50:08;19.00;99.90
45765;DHT22;31474;45.332;10.230;2024-02-23T12:52:34;19.00;99.90
45765;DHT22;31474;45.332;10.230;2024-02-23T12:55:00;19.00;99.90
45765;DHT22;31474;45.332;10.230;2024-02-23T12:57:25;19.00;99.90
45765;DHT22;31474;45.332;10.230;2024-02-23T12:59:51;18.90;99.90
45765;DHT22;31474;45.332;10.230;2024-02-23T13:02:17;18.90;99.90
45765;DHT22;31474;45.332;10.230;2024-02-23T13:04:42;18.90;99.90
45765;DHT22;31474;45.332;10.230;2024-02-23T13:07:14;18.90;99.90
45765;DHT22;31474;45.332;10.230;2024-02-23T13:09:40;18.80;99.90
45765;DHT22;31474;45.332;10.230;2024-02-23T13:12:05;18.90;99.90
45765;DHT22;31474;45.332;10.230;2024-02-23T13:14:31;18.90;99.90
45765;DHT22;31474;45.332;10.230;2024-02-23T13:16:57;18.90;99.90
45765;DHT22;31474;45.332;10.230;2024-02-23T13:19:22;18.90;99.90
45765;DHT22;31474;45.332;10.230;2024-02-23T13:21:48;18.90;99.90
45765;DHT22;31474;45.332;10.230;2024-02-23T13:24:14;18.90;99.90
45765;DHT22;31474;45.332;10.230;2024-02-23T13:26:40;18.90;99.90
45765;DHT22;31474;45.332;10.230;2024-02-23T13:29:06;18.90;99.90
45765;DHT22;31474;45.332;10.230;2024-02-23T13:31:32;18.90;99.90
45765;DHT22;31474;45.332;10.230;2024-02-23T13:33:58;18.90;99.90
45765;DHT22;31474;45.332;10.230;2024-02-23T13:36:23;18.90;99.90
45765;DHT22;31474;45.332;10.230;2024-02-23T13:38:49;19.00;99.90
45765;DHT22;31474;45.332;10.230;2024-02-23T13:41:16;18.90;99.90
45765;DHT22;31474;45.332;10.230;2024-02-23T13:43:42;19.00;99.90
45765;DHT22;31474;45.332;10.230;2024-02-23T13:46:08;19.00;99.90
45765;DHT22;31474;45.332;10.230;2024-02-23T13:48:33;19.10;99.90
45765;DHT22;31474;45.332;10.230;2024-02-23T13:50:59;19.20;99.90
45765;DHT22;31474;45.332;10.230;2024-02-23T13:53:29;19.30;99.90
45765;DHT22;31474;45.332;10.230;2024-02-23T13:55:55;19.40;99.90
45765;DHT22;31474;45.332;10.230;2024-02-23T13:58:20;19.50;99.90
45765;DHT22;31474;45.332;10.230;2024-02-23T14:00:46;19.50;99.90
45765;DHT22;31474;45.332;10.230;2024-02-23T14:03:16;19.50;99.90
45765;DHT22;31474;45.332;10.230;2024-02-23T14:05:43;19.50;99.90
45765;DHT22;31474;45.332;10.230;2024-02-23T14:08:10;19.50;99.90
45765;DHT22;31474;45.332;10.230;2024-02-23T14:10:36;19.60;99.90
45765;DHT22;31474;45.332;10.230;2024-02-23T14:13:02;19.60;99.90
45765;DHT22;31474;45.332;10.230;2024-02-23T14:15:27;19.60;99.90
45765;DHT22;31474;45.332;10.230;2024-02-23T14:17:53;19.60;99.90
45765;DHT22;31474;45.332;10.230;2024-02-23T14:20:19;19.60;99.90
45765;DHT22;31474;45.332;10.230;2024-02-23T14:22:44;19.60;99.90
45765;DHT22;31474;45.332;10.230;2024-02-23T14:25:10;19.60;99.90
45765;DHT22;31474;45.332;10.230;2024-02-23T14:27:36;19.60;99.90
45765;DHT22;31474;45.332;10.230;2024-02-23T14:30:02;19.60;99.90
45765;DHT22;31474;45.332;10.230;2024-02-23T14:32:27;19.60;99.90
45765;DHT22;31474;45.332;10.230;2024-02-23T14:34:53;19.60;99.90
45765;DHT22;31474;45.332;10.230;2024-02-23T14:37:19;19.70;99.90
45765;DHT22;31474;45.332;10.230;2024-02-23T14:39:44;19.70;99.90
45765;DHT22;31474;45.332;10.230;2024-02-23T14:42:10;19.70;99.90
45765;DHT22;31474;45.332;10.230;2024-02-23T14:44:36;19.70;99.90
45765;DHT22;31474;45.332;10.230;2024-02-23T14:47:02;19.70;99.90
45765;DHT22;31474;45.332;10.230;2024-02-23T14:49:28;19.80;99.90
45765;DHT22;31474;45.332;10.230;2024-02-23T14:51:54;19.80;99.90
45765;DHT22;31474;45.332;10.230;2024-02-23T14:54:19;19.80;99.90
45765;DHT22;31474;45.332;10.230;2024-02-23T14:56:45;19.90;99.90
45765;DHT22;31474;45.332;10.230;2024-02-23T14:59:12;19.90;99.90
45765;DHT22;31474;45.332;10.230;2024-02-23T15:01:38;19.90;99.90
45765;DHT22;31474;45.332;10.230;2024-02-23T15:04:07;19.90;99.90
45765;DHT22;31474;45.332;10.230;2024-02-23T15:06:32;19.90;99.90
45765;DHT22;31474;45.332;10.230;2024-02-23T15:08:58;19.90;99.90
45765;DHT22;31474;45.332;10.230;2024-02-23T15:11:24;19.90;99.90